sensor_id;sensor_type;location;lat;lon;timestamp;temperature;humidity
12578;DHT22;6354;51.026;8.968;2023-01-16T00:02:05;4.70;99.90
12578;DHT22;6354;51.026;8.968;2023-01-16T00:04:33;4.70;99.90
12578;DHT22;6354;51.026;8.968;2023-01-16T00:07:01;4.70;99.90
12578;DHT22;6354;51.026;8.968;2023-01-16T00:09:29;4.70;99.90
12578;DHT22;6354;51.026;8.968;2023-01-16T00:11:59;4.60;99.90
12578;DHT22;6354;51.026;8.968;2023-01-16T00:14:29;4.60;99.90
12578;DHT22;6354;51.026;8.968;2023-01-16T00:16:57;4.60;99.90
12578;DHT22;6354;51.026;8.968;2023-01-16T00:19:25;4.60;99.90
12578;DHT22;6354;51.026;8.968;2023-01-16T00:21:53;4.60;99.90
12578;DHT22;6354;51.026;8.968;2023-01-16T00:24:21;4.70;99.90
12578;DHT22;6354;51.026;8.968;2023-01-16T00:26:50;4.60;99.90
12578;DHT22;6354;51.026;8.968;2023-01-16T00:29:19;4.60;99.90
12578;DHT22;6354;51.026;8.968;2023-01-16T00:31:47;4.60;99.90
12578;DHT22;6354;51.026;8.968;2023-01-16T00:34:15;4.60;99.90
12578;DHT22;6354;51.026;8.968;2023-01-16T00:36:44;4.60;99.90
12578;DHT22;6354;51.026;8.968;2023-01-16T00:39:12;4.60;99.90
12578;DHT22;6354;51.026;8.968;2023-01-16T00:41:40;4.60;99.90
12578;DHT22;6354;51.026;8.968;2023-01-16T00:44:08;4.50;99.90
12578;DHT22;6354;51.026;8.968;2023-01-16T00:46:37;4.50;99.90
12578;DHT22;6354;51.026;8.968;2023-01-16T00:49:05;4.50;99.90
12578;DHT22;6354;51.026;8.968;2023-01-16T00:51:33;4.50;99.90
12578;DHT22;6354;51.026;8.968;2023-01-16T00:54:01;4.50;99.90
12578;DHT22;6354;51.026;8.968;2023-01-16T00:56:29;4.50;99.90
12578;DHT22;6354;51.026;8.968;2023-01-16T00:58:57;4.50;99.90
12578;DHT22;6354;51.026;8.968;2023-01-16T01:01:25;4.50;99.90
12578;DHT22;6354;51.026;8.968;2023-01-16T01:03:55;4.40;99.90
12578;DHT22;6354;51.026;8.968;2023-01-16T01:06:25;4.40;99.90
12578;DHT22;6354;51.026;8.968;2023-01-16T01:08:53;4.40;99.90
12578;DHT22;6354;51.026;8.968;2023-01-16T01:11:21;4.40;99.90
12578;DHT22;6354;51.026;8.968;2023-01-16T01:13:49;4.40;99.90
12578;DHT22;6354;51.026;8.968;2023-01-16T01:16:17;4.40;99.90
12578;DHT22;6354;51.026;8.968;2023-01-16T01:18:45;4.40;99.90
12578;DHT22;6354;51.026;8.968;2023-01-16T01:21:15;4.40;99.90
12578;DHT22;6354;51.026;8.968;2023-01-16T01:23:43;4.50;99.90
12578;DHT22;6354;51.026;8.968;2023-01-16T01:26:14;4.50;99.90
12578;DHT22;6354;51.026;8.968;2023-01-16T01:28:43;4.50;99.90
12578;DHT22;6354;51.026;8.968;2023-01-16T01:31:12;4.50;99.90
12578;DHT22;6354;51.026;8.968;2023-01-16T01:33:41;4.50;99.90
12578;DHT22;6354;51.026;8.968;2023-01-16T01:36:09;4.50;99.90
12578;DHT22;6354;51.026;8.968;2023-01-16T01:38:41;4.40;99.90
12578;DHT22;6354;51.026;8.968;2023-01-16T01:41:12;4.40;99.90
12578;DHT22;6354;51.026;8.968;2023-01-16T01:43:46;4.40;99.90
12578;DHT22;6354;51.026;8.968;2023-01-16T01:46:21;4.40;99.90
12578;DHT22;6354;51.026;8.968;2023-01-16T01:48:53;4.40;99.90
12578;DHT22;6354;51.026;8.968;2023-01-16T01:51:25;4.50;99.90
12578;DHT22;6354;51.026;8.968;2023-01-16T01:54:00;4.50;99.90
12578;DHT22;6354;51.026;8.968;2023-01-16T01:56:34;4.50;99.90
12578;DHT22;6354;51.026;8.968;2023-01-16T01:59:09;4.40;99.90
12578;DHT22;6354;51.026;8.968;2023-01-16T02:01:39;4.40;99.90
12578;DHT22;6354;51.026;8.968;2023-01-16T02:04:12;4.40;99.90
12578;DHT22;6354;51.026;8.968;2023-01-16T02:06:43;4.50;99.90
12578;DHT22;6354;51.026;8.968;2023-01-16T02:09:14;4.40;99.90
12578;DHT22;6354;51.026;8.968;2023-01-16T02:11:46;4.40;99.90
12578;DHT22;6354;51.026;8.968;2023-01-16T02:14:17;4.50;99.90
12578;DHT22;6354;51.026;8.968;2023-01-16T02:16:47;4.40;99.90
12578;DHT22;6354;51.026;8.968;2023-01-16T02:19:45;4.50;99.90
12578;DHT22;6354;51.026;8.968;2023-01-16T02:22:43;4.50;99.90
12578;DHT22;6354;51.026;8.968;2023-01-16T02:25:35;4.50;99.90
12578;DHT22;6354;51.026;8.968;2023-01-16T02:31:25;4.50;99.90
12578;DHT22;6354;51.026;8.968;2023-01-16T02:34:08;4.50;99.90
12578;DHT22;6354;51.026;8.968;2023-01-16T02:36:46;4.50;99.90
12578;DHT22;6354;51.026;8.968;2023-01-16T02:39:25;4.60;99.90
12578;DHT22;6354;51.026;8.968;2023-01-16T02:42:02;4.60;99.90
12578;DHT22;6354;51.026;8.968;2023-01-16T02:44:37;4.60;99.90
12578;DHT22;6354;51.026;8.968;2023-01-16T02:47:15;4.60;99.90
12578;DHT22;6354;51.026;8.968;2023-01-16T02:49:48;4.60;99.90
12578;DHT22;6354;51.026;8.968;2023-01-16T02:52:22;4.60;99.90
12578;DHT22;6354;51.026;8.968;2023-01-16T02:54:56;4.60;99.90
12578;DHT22;6354;51.026;8.968;2023-01-16T02:57:30;4.60;99.90
12578;DHT22;6354;51.026;8.968;2023-01-16T03:00:00;4.60;99.90
12578;DHT22;6354;51.026;8.968;2023-01-16T03:02:31;4.50;99.90
12578;DHT22;6354;51.026;8.968;2023-01-16T03:05:00;4.50;99.90
12578;DHT22;6354;51.026;8.968;2023-01-16T03:10:47;4.40;99.90
12578;DHT22;6354;51.026;8.968;2023-01-16T03:13:25;4.50;99.90
12578;DHT22;6354;51.026;8.968;2023-01-16T03:16:01;4.40;99.90
12578;DHT22;6354;51.026;8.968;2023-01-16T03:18:40;4.50;99.90
12578;DHT22;6354;51.026;8.968;2023-01-16T03:21:11;4.50;99.90
12578;DHT22;6354;51.026;8.968;2023-01-16T03:23:50;4.40;99.90
12578;DHT22;6354;51.026;8.968;2023-01-16T03:26:26;4.50;99.90
12578;DHT22;6354;51.026;8.968;2023-01-16T03:29:02;4.40;99.90
12578;DHT22;6354;51.026;8.968;2023-01-16T03:31:38;4.40;99.90
12578;DHT22;6354;51.026;8.968;2023-01-16T03:34:14;4.40;99.90
12578;DHT22;6354;51.026;8.968;2023-01-16T03:36:50;4.40;99.90
12578;DHT22;6354;51.026;8.968;2023-01-16T03:39:22;4.40;99.90
12578;DHT22;6354;51.026;8.968;2023-01-16T03:41:53;4.50;99.90
12578;DHT22;6354;51.026;8.968;2023-01-16T03:44:25;4.50;99.90
12578;DHT22;6354;51.026;8.968;2023-01-16T03:46:57;4.50;99.90
12578;DHT22;6354;51.026;8.968;2023-01-16T03:49:31;4.50;99.90
12578;DHT22;6354;51.026;8.968;2023-01-16T03:52:02;4.40;99.90
12578;DHT22;6354;51.026;8.968;2023-01-16T03:54:36;4.40;99.90
12578;DHT22;6354;51.026;8.968;2023-01-16T03:57:12;4.40;99.90
12578;DHT22;6354;51.026;8.968;2023-01-16T03:59:43;4.30;99.90
12578;DHT22;6354;51.026;8.968;2023-01-16T04:02:14;4.30;99.90
12578;DHT22;6354;51.026;8.968;2023-01-16T04:04:49;4.40;99.90
12578;DHT22;6354;51.026;8.968;2023-01-16T04:07:23;4.30;99.90
12578;DHT22;6354;51.026;8.968;2023-01-16T04:09:56;4.30;99.90
12578;DHT22;6354;51.026;8.968;2023-01-16T04:12:27;4.40;99.90
12578;DHT22;6354;51.026;8.968;2023-01-16T04:14:59;4.30;99.90
12578;DHT22;6354;51.026;8.968;2023-01-16T04:17:33;4.30;99.90
12578;DHT22;6354;51.026;8.968;2023-01-16T04:20:04;4.30;99.90
12578;DHT22;6354;51.026;8.968;2023-01-16T04:22:33;4.40;99.90
12578;DHT22;6354;51.026;8.968;2023-01-16T04:25:04;4.30;99.90
12578;DHT22;6354;51.026;8.968;2023-01-16T04:27:34;4.30;99.90
12578;DHT22;6354;51.026;8.968;2023-01-16T04:30:05;4.30;99.90
12578;DHT22;6354;51.026;8.968;2023-01-16T04:32:33;4.30;99.90
12578;DHT22;6354;51.026;8.968;2023-01-16T04:35:03;4.30;99.90
12578;DHT22;6354;51.026;8.968;2023-01-16T04:37:31;4.30;99.90
12578;DHT22;6354;51.026;8.968;2023-01-16T04:40:00;4.40;99.90
12578;DHT22;6354;51.026;8.968;2023-01-16T04:42:28;4.40;99.90
12578;DHT22;6354;51.026;8.968;2023-01-16T04:44:56;4.40;99.90
12578;DHT22;6354;51.026;8.968;2023-01-16T04:47:24;4.40;99.90
12578;DHT22;6354;51.026;8.968;2023-01-16T04:49:52;4.30;99.90
12578;DHT22;6354;51.026;8.968;2023-01-16T04:52:22;4.30;99.90
12578;DHT22;6354;51.026;8.968;2023-01-16T04:54:50;4.30;99.90
12578;DHT22;6354;51.026;8.968;2023-01-16T04:57:17;4.30;99.90
12578;DHT22;6354;51.026;8.968;2023-01-16T04:59:45;4.30;99.90
12578;DHT22;6354;51.026;8.968;2023-01-16T05:02:13;4.30;99.90
12578;DHT22;6354;51.026;8.968;2023-01-16T05:04:42;4.30;99.90
12578;DHT22;6354;51.026;8.968;2023-01-16T05:07:14;4.30;99.90
12578;DHT22;6354;51.026;8.968;2023-01-16T05:09:43;4.40;99.90
12578;DHT22;6354;51.026;8.968;2023-01-16T05:12:11;4.40;99.90
12578;DHT22;6354;51.026;8.968;2023-01-16T05:14:39;4.30;99.90
12578;DHT22;6354;51.026;8.968;2023-01-16T05:17:07;4.30;99.90
12578;DHT22;6354;51.026;8.968;2023-01-16T05:19:35;4.30;99.90
12578;DHT22;6354;51.026;8.968;2023-01-16T05:22:03;4.30;99.90
12578;DHT22;6354;51.026;8.968;2023-01-16T05:24:31;4.30;99.90
12578;DHT22;6354;51.026;8.968;2023-01-16T05:27:00;4.30;99.90
12578;DHT22;6354;51.026;8.968;2023-01-16T05:29:29;4.30;99.90
12578;DHT22;6354;51.026;8.968;2023-01-16T05:31:57;4.20;99.90
12578;DHT22;6354;51.026;8.968;2023-01-16T05:34:25;4.20;99.90
12578;DHT22;6354;51.026;8.968;2023-01-16T05:36:53;4.20;99.90
12578;DHT22;6354;51.026;8.968;2023-01-16T05:39:21;4.20;99.90
12578;DHT22;6354;51.026;8.968;2023-01-16T05:41:49;4.20;99.90
12578;DHT22;6354;51.026;8.968;2023-01-16T05:44:18;4.20;99.90
12578;DHT22;6354;51.026;8.968;2023-01-16T05:46:46;4.20;99.90
12578;DHT22;6354;51.026;8.968;2023-01-16T05:49:14;4.20;99.90
12578;DHT22;6354;51.026;8.968;2023-01-16T05:51:42;4.20;99.90
12578;DHT22;6354;51.026;8.968;2023-01-16T05:54:11;4.10;99.90
12578;DHT22;6354;51.026;8.968;2023-01-16T05:56:39;4.20;99.90
12578;DHT22;6354;51.026;8.968;2023-01-16T05:59:09;4.20;99.90
12578;DHT22;6354;51.026;8.968;2023-01-16T06:01:38;4.20;99.90
12578;DHT22;6354;51.026;8.968;2023-01-16T06:04:06;4.20;99.90
12578;DHT22;6354;51.026;8.968;2023-01-16T06:06:34;4.20;99.90
12578;DHT22;6354;51.026;8.968;2023-01-16T06:09:03;4.30;99.90
12578;DHT22;6354;51.026;8.968;2023-01-16T06:11:31;4.40;99.90
12578;DHT22;6354;51.026;8.968;2023-01-16T06:13:59;4.30;99.90
12578;DHT22;6354;51.026;8.968;2023-01-16T06:16:30;4.30;99.90
12578;DHT22;6354;51.026;8.968;2023-01-16T06:18:59;4.30;99.90
12578;DHT22;6354;51.026;8.968;2023-01-16T06:21:28;4.30;99.90
12578;DHT22;6354;51.026;8.968;2023-01-16T06:23:56;4.30;99.90
12578;DHT22;6354;51.026;8.968;2023-01-16T06:26:24;4.30;99.90
12578;DHT22;6354;51.026;8.968;2023-01-16T06:28:52;4.30;99.90
12578;DHT22;6354;51.026;8.968;2023-01-16T06:31:21;4.30;99.90
12578;DHT22;6354;51.026;8.968;2023-01-16T06:33:49;4.30;99.90
12578;DHT22;6354;51.026;8.968;2023-01-16T06:36:18;4.30;99.90
12578;DHT22;6354;51.026;8.968;2023-01-16T06:38:46;4.30;99.90
12578;DHT22;6354;51.026;8.968;2023-01-16T06:41:14;4.30;99.90
12578;DHT22;6354;51.026;8.968;2023-01-16T06:43:42;4.30;99.90
12578;DHT22;6354;51.026;8.968;2023-01-16T06:46:10;4.30;99.90
12578;DHT22;6354;51.026;8.968;2023-01-16T06:48:38;4.30;99.90
12578;DHT22;6354;51.026;8.968;2023-01-16T06:51:08;4.40;99.90
12578;DHT22;6354;51.026;8.968;2023-01-16T06:53:38;4.30;99.90
12578;DHT22;6354;51.026;8.968;2023-01-16T06:56:07;4.30;99.90
12578;DHT22;6354;51.026;8.968;2023-01-16T06:58:35;4.40;99.90
12578;DHT22;6354;51.026;8.968;2023-01-16T07:01:03;4.30;99.90
12578;DHT22;6354;51.026;8.968;2023-01-16T07:03:31;4.30;99.90
12578;DHT22;6354;51.026;8.968;2023-01-16T07:05:59;4.30;99.90
12578;DHT22;6354;51.026;8.968;2023-01-16T07:08:28;4.30;99.90
12578;DHT22;6354;51.026;8.968;2023-01-16T07:11:00;4.40;99.90
12578;DHT22;6354;51.026;8.968;2023-01-16T07:13:28;4.40;99.90
12578;DHT22;6354;51.026;8.968;2023-01-16T07:15:56;4.40;99.90
12578;DHT22;6354;51.026;8.968;2023-01-16T07:18:42;4.40;99.90
12578;DHT22;6354;51.026;8.968;2023-01-16T07:21:28;4.50;99.90
12578;DHT22;6354;51.026;8.968;2023-01-16T07:24:17;4.50;99.90
12578;DHT22;6354;51.026;8.968;2023-01-16T07:26:49;4.50;99.90
12578;DHT22;6354;51.026;8.968;2023-01-16T07:29:18;4.50;99.90
12578;DHT22;6354;51.026;8.968;2023-01-16T07:31:46;4.50;99.90
12578;DHT22;6354;51.026;8.968;2023-01-16T07:34:15;4.50;99.90
12578;DHT22;6354;51.026;8.968;2023-01-16T07:36:43;4.50;99.90
12578;DHT22;6354;51.026;8.968;2023-01-16T07:39:11;4.50;99.90
12578;DHT22;6354;51.026;8.968;2023-01-16T07:41:39;4.50;99.90
12578;DHT22;6354;51.026;8.968;2023-01-16T07:44:23;4.50;99.90
12578;DHT22;6354;51.026;8.968;2023-01-16T07:46:51;4.50;99.90
12578;DHT22;6354;51.026;8.968;2023-01-16T07:49:19;4.50;99.90
12578;DHT22;6354;51.026;8.968;2023-01-16T07:51:47;4.50;99.90
12578;DHT22;6354;51.026;8.968;2023-01-16T07:54:15;4.60;99.90
12578;DHT22;6354;51.026;8.968;2023-01-16T07:56:43;4.60;99.90
12578;DHT22;6354;51.026;8.968;2023-01-16T07:59:11;4.60;99.90
12578;DHT22;6354;51.026;8.968;2023-01-16T08:01:41;4.60;99.90
12578;DHT22;6354;51.026;8.968;2023-01-16T08:04:09;4.50;99.90
12578;DHT22;6354;51.026;8.968;2023-01-16T08:06:37;4.60;99.90
12578;DHT22;6354;51.026;8.968;2023-01-16T08:09:09;4.60;99.90
12578;DHT22;6354;51.026;8.968;2023-01-16T08:11:37;4.60;99.90
12578;DHT22;6354;51.026;8.968;2023-01-16T08:14:07;4.60;99.90
12578;DHT22;6354;51.026;8.968;2023-01-16T08:16:35;4.60;99.90
12578;DHT22;6354;51.026;8.968;2023-01-16T08:19:04;4.70;99.90
12578;DHT22;6354;51.026;8.968;2023-01-16T08:21:32;4.60;99.90
12578;DHT22;6354;51.026;8.968;2023-01-16T08:24:00;4.70;99.90
12578;DHT22;6354;51.026;8.968;2023-01-16T08:26:28;4.70;99.90
12578;DHT22;6354;51.026;8.968;2023-01-16T08:28:56;4.70;99.90
12578;DHT22;6354;51.026;8.968;2023-01-16T08:31:26;4.80;99.90
12578;DHT22;6354;51.026;8.968;2023-01-16T08:33:54;4.80;99.90
12578;DHT22;6354;51.026;8.968;2023-01-16T08:36:24;4.90;99.90
12578;DHT22;6354;51.026;8.968;2023-01-16T08:38:52;4.90;99.90
12578;DHT22;6354;51.026;8.968;2023-01-16T08:41:20;4.90;99.90
12578;DHT22;6354;51.026;8.968;2023-01-16T08:44:08;4.90;99.90
12578;DHT22;6354;51.026;8.968;2023-01-16T08:46:57;4.90;99.90
12578;DHT22;6354;51.026;8.968;2023-01-16T08:49:43;5.00;99.90
12578;DHT22;6354;51.026;8.968;2023-01-16T08:52:31;5.00;99.90
12578;DHT22;6354;51.026;8.968;2023-01-16T08:55:00;5.20;99.90
12578;DHT22;6354;51.026;8.968;2023-01-16T08:57:28;5.20;99.90
12578;DHT22;6354;51.026;8.968;2023-01-16T08:59:57;5.20;99.90
12578;DHT22;6354;51.026;8.968;2023-01-16T09:02:25;5.30;99.90
12578;DHT22;6354;51.026;8.968;2023-01-16T09:04:54;5.20;99.90
12578;DHT22;6354;51.026;8.968;2023-01-16T09:07:22;5.30;99.90
12578;DHT22;6354;51.026;8.968;2023-01-16T09:09:52;5.30;99.90
12578;DHT22;6354;51.026;8.968;2023-01-16T09:12:20;5.40;99.90
12578;DHT22;6354;51.026;8.968;2023-01-16T09:15:07;5.30;99.90
12578;DHT22;6354;51.026;8.968;2023-01-16T09:17:35;5.40;99.90
12578;DHT22;6354;51.026;8.968;2023-01-16T09:20:04;5.30;99.90
12578;DHT22;6354;51.026;8.968;2023-01-16T09:22:32;5.30;99.90
12578;DHT22;6354;51.026;8.968;2023-01-16T09:25:02;5.30;99.90
12578;DHT22;6354;51.026;8.968;2023-01-16T09:27:30;5.40;99.90
12578;DHT22;6354;51.026;8.968;2023-01-16T09:29:58;5.20;99.90
12578;DHT22;6354;51.026;8.968;2023-01-16T09:32:26;5.20;99.90
12578;DHT22;6354;51.026;8.968;2023-01-16T09:34:55;5.30;99.90
12578;DHT22;6354;51.026;8.968;2023-01-16T09:37:23;5.20;99.90
12578;DHT22;6354;51.026;8.968;2023-01-16T09:39:51;5.10;99.90
12578;DHT22;6354;51.026;8.968;2023-01-16T09:42:38;5.10;99.90
12578;DHT22;6354;51.026;8.968;2023-01-16T09:45:30;5.10;99.90
12578;DHT22;6354;51.026;8.968;2023-01-16T09:48:02;5.10;99.90
12578;DHT22;6354;51.026;8.968;2023-01-16T09:50:36;5.10;99.90
12578;DHT22;6354;51.026;8.968;2023-01-16T09:53:10;5.10;99.90
12578;DHT22;6354;51.026;8.968;2023-01-16T09:55:58;5.10;99.90
12578;DHT22;6354;51.026;8.968;2023-01-16T09:58:49;5.10;99.90
12578;DHT22;6354;51.026;8.968;2023-01-16T10:01:26;5.00;99.90
12578;DHT22;6354;51.026;8.968;2023-01-16T10:04:09;5.00;99.90
12578;DHT22;6354;51.026;8.968;2023-01-16T10:06:42;5.00;99.90
12578;DHT22;6354;51.026;8.968;2023-01-16T10:09:21;5.00;99.90
12578;DHT22;6354;51.026;8.968;2023-01-16T10:11:57;4.90;99.90
12578;DHT22;6354;51.026;8.968;2023-01-16T10:14:35;5.00;99.90
12578;DHT22;6354;51.026;8.968;2023-01-16T10:17:16;4.90;99.90
12578;DHT22;6354;51.026;8.968;2023-01-16T10:20:17;4.70;99.90
12578;DHT22;6354;51.026;8.968;2023-01-16T10:22:57;4.60;99.90
12578;DHT22;6354;51.026;8.968;2023-01-16T10:25:30;4.60;99.90
12578;DHT22;6354;51.026;8.968;2023-01-16T10:28:09;4.60;99.90
12578;DHT22;6354;51.026;8.968;2023-01-16T10:30:45;4.60;99.90
12578;DHT22;6354;51.026;8.968;2023-01-16T10:33:20;4.60;99.90
12578;DHT22;6354;51.026;8.968;2023-01-16T10:35:53;4.60;99.90
12578;DHT22;6354;51.026;8.968;2023-01-16T10:38:30;4.60;99.90
12578;DHT22;6354;51.026;8.968;2023-01-16T10:41:07;4.60;99.90
12578;DHT22;6354;51.026;8.968;2023-01-16T10:43:56;4.70;99.90
12578;DHT22;6354;51.026;8.968;2023-01-16T10:46:44;4.70;99.90
12578;DHT22;6354;51.026;8.968;2023-01-16T10:49:31;4.70;99.90
12578;DHT22;6354;51.026;8.968;2023-01-16T10:52:02;4.60;99.90
12578;DHT22;6354;51.026;8.968;2023-01-16T10:54:31;4.70;99.90
12578;DHT22;6354;51.026;8.968;2023-01-16T10:56:59;4.60;99.90
12578;DHT22;6354;51.026;8.968;2023-01-16T10:59:30;4.60;99.90
12578;DHT22;6354;51.026;8.968;2023-01-16T11:02:04;4.50;99.90
12578;DHT22;6354;51.026;8.968;2023-01-16T11:04:40;4.60;99.90
12578;DHT22;6354;51.026;8.968;2023-01-16T11:07:16;4.60;99.90
12578;DHT22;6354;51.026;8.968;2023-01-16T11:09:45;4.60;99.90
12578;DHT22;6354;51.026;8.968;2023-01-16T11:12:21;4.60;99.90
12578;DHT22;6354;51.026;8.968;2023-01-16T11:15:14;4.70;99.90
12578;DHT22;6354;51.026;8.968;2023-01-16T11:18:02;4.70;99.90
12578;DHT22;6354;51.026;8.968;2023-01-16T11:20:50;4.60;99.90
12578;DHT22;6354;51.026;8.968;2023-01-16T11:23:20;4.70;99.90
12578;DHT22;6354;51.026;8.968;2023-01-16T11:25:49;4.60;99.90
12578;DHT22;6354;51.026;8.968;2023-01-16T11:28:20;4.50;99.90
12578;DHT22;6354;51.026;8.968;2023-01-16T11:30:52;4.30;99.90
12578;DHT22;6354;51.026;8.968;2023-01-16T11:33:25;4.30;99.90
12578;DHT22;6354;51.026;8.968;2023-01-16T11:35:56;4.30;99.90
12578;DHT22;6354;51.026;8.968;2023-01-16T11:38:27;4.20;99.90
12578;DHT22;6354;51.026;8.968;2023-01-16T11:41:02;4.20;99.90
12578;DHT22;6354;51.026;8.968;2023-01-16T11:43:31;4.20;99.90
12578;DHT22;6354;51.026;8.968;2023-01-16T11:46:30;4.20;99.90
12578;DHT22;6354;51.026;8.968;2023-01-16T11:49:01;4.30;99.90
12578;DHT22;6354;51.026;8.968;2023-01-16T11:51:31;4.30;99.90
12578;DHT22;6354;51.026;8.968;2023-01-16T11:54:01;4.30;99.90
12578;DHT22;6354;51.026;8.968;2023-01-16T11:56:50;4.30;99.90
12578;DHT22;6354;51.026;8.968;2023-01-16T11:59:37;4.30;99.90
12578;DHT22;6354;51.026;8.968;2023-01-16T12:02:38;4.20;99.90
12578;DHT22;6354;51.026;8.968;2023-01-16T12:05:19;4.10;99.90
12578;DHT22;6354;51.026;8.968;2023-01-16T12:08:18;4.10;99.90
12578;DHT22;6354;51.026;8.968;2023-01-16T12:10:57;4.10;99.90
12578;DHT22;6354;51.026;8.968;2023-01-16T12:13:30;4.20;99.90
12578;DHT22;6354;51.026;8.968;2023-01-16T12:16:25;4.20;99.90
12578;DHT22;6354;51.026;8.968;2023-01-16T12:19:07;4.20;99.90
12578;DHT22;6354;51.026;8.968;2023-01-16T12:21:45;4.20;99.90
12578;DHT22;6354;51.026;8.968;2023-01-16T12:24:32;4.20;99.90
12578;DHT22;6354;51.026;8.968;2023-01-16T12:27:15;4.10;99.90
12578;DHT22;6354;51.026;8.968;2023-01-16T12:29:53;4.20;99.90
12578;DHT22;6354;51.026;8.968;2023-01-16T12:32:37;4.20;99.90
12578;DHT22;6354;51.026;8.968;2023-01-16T12:35:31;4.20;99.90
12578;DHT22;6354;51.026;8.968;2023-01-16T12:38:10;4.10;99.90
12578;DHT22;6354;51.026;8.968;2023-01-16T12:40:56;4.10;99.90
12578;DHT22;6354;51.026;8.968;2023-01-16T12:43:55;4.10;99.90
12578;DHT22;6354;51.026;8.968;2023-01-16T12:46:32;4.00;99.90
12578;DHT22;6354;51.026;8.968;2023-01-16T12:49:15;4.10;99.90
12578;DHT22;6354;51.026;8.968;2023-01-16T12:51:56;4.10;99.90
12578;DHT22;6354;51.026;8.968;2023-01-16T12:57:42;4.10;99.90
12578;DHT22;6354;51.026;8.968;2023-01-16T13:00:18;4.00;99.90
12578;DHT22;6354;51.026;8.968;2023-01-16T13:02:52;4.10;99.90
12578;DHT22;6354;51.026;8.968;2023-01-16T13:05:25;4.10;99.90
12578;DHT22;6354;51.026;8.968;2023-01-16T13:07:59;4.20;99.90
12578;DHT22;6354;51.026;8.968;2023-01-16T13:10:32;4.10;99.90
12578;DHT22;6354;51.026;8.968;2023-01-16T13:13:22;4.10;99.90
12578;DHT22;6354;51.026;8.968;2023-01-16T13:15:59;4.10;99.90
12578;DHT22;6354;51.026;8.968;2023-01-16T13:18:34;4.20;99.90
12578;DHT22;6354;51.026;8.968;2023-01-16T13:21:07;4.20;99.90
12578;DHT22;6354;51.026;8.968;2023-01-16T13:23:40;4.30;99.90
12578;DHT22;6354;51.026;8.968;2023-01-16T13:26:15;4.30;99.90
12578;DHT22;6354;51.026;8.968;2023-01-16T13:28:49;4.30;99.90
12578;DHT22;6354;51.026;8.968;2023-01-16T13:31:25;4.20;99.90
12578;DHT22;6354;51.026;8.968;2023-01-16T13:33:58;4.30;99.90
12578;DHT22;6354;51.026;8.968;2023-01-16T13:39:47;4.30;99.90
12578;DHT22;6354;51.026;8.968;2023-01-16T13:42:21;4.30;99.90
12578;DHT22;6354;51.026;8.968;2023-01-16T13:44:54;4.30;99.90
12578;DHT22;6354;51.026;8.968;2023-01-16T13:47:41;4.40;99.90
12578;DHT22;6354;51.026;8.968;2023-01-16T13:50:18;4.40;99.90
12578;DHT22;6354;51.026;8.968;2023-01-16T13:52:47;4.40;99.90
12578;DHT22;6354;51.026;8.968;2023-01-16T13:55:27;4.50;99.90
12578;DHT22;6354;51.026;8.968;2023-01-16T13:58:07;4.50;99.90
12578;DHT22;6354;51.026;8.968;2023-01-16T14:00:36;4.60;99.90
12578;DHT22;6354;51.026;8.968;2023-01-16T14:03:21;4.60;99.90
12578;DHT22;6354;51.026;8.968;2023-01-16T14:05:51;4.60;99.90
12578;DHT22;6354;51.026;8.968;2023-01-16T14:08:26;4.60;99.90
12578;DHT22;6354;51.026;8.968;2023-01-16T14:11:40;4.60;99.90
12578;DHT22;6354;51.026;8.968;2023-01-16T14:14:30;4.60;99.90
12578;DHT22;6354;51.026;8.968;2023-01-16T14:17:17;4.70;99.90
12578;DHT22;6354;51.026;8.968;2023-01-16T14:19:56;4.70;99.90
12578;DHT22;6354;51.026;8.968;2023-01-16T14:22:32;4.70;99.90
12578;DHT22;6354;51.026;8.968;2023-01-16T14:25:21;4.70;99.90
12578;DHT22;6354;51.026;8.968;2023-01-16T14:27:52;4.60;99.90
12578;DHT22;6354;51.026;8.968;2023-01-16T14:30:30;4.70;99.90
12578;DHT22;6354;51.026;8.968;2023-01-16T14:33:03;4.60;99.90
12578;DHT22;6354;51.026;8.968;2023-01-16T14:35:42;4.70;99.90
12578;DHT22;6354;51.026;8.968;2023-01-16T14:38:15;4.70;99.90
12578;DHT22;6354;51.026;8.968;2023-01-16T14:40:48;4.70;99.90
12578;DHT22;6354;51.026;8.968;2023-01-16T14:43:36;4.60;99.90
12578;DHT22;6354;51.026;8.968;2023-01-16T14:46:32;4.70;99.90
12578;DHT22;6354;51.026;8.968;2023-01-16T14:49:37;4.70;99.90
12578;DHT22;6354;51.026;8.968;2023-01-16T14:52:46;4.70;99.90
12578;DHT22;6354;51.026;8.968;2023-01-16T14:55:48;4.80;99.90
12578;DHT22;6354;51.026;8.968;2023-01-16T14:58:23;4.60;99.90
12578;DHT22;6354;51.026;8.968;2023-01-16T15:00:56;4.60;99.90
12578;DHT22;6354;51.026;8.968;2023-01-16T15:04:02;4.70;99.90
12578;DHT22;6354;51.026;8.968;2023-01-16T15:06:37;4.80;99.90
12578;DHT22;6354;51.026;8.968;2023-01-16T15:09:11;4.70;99.90
12578;DHT22;6354;51.026;8.968;2023-01-16T15:11:47;4.70;99.90
12578;DHT22;6354;51.026;8.968;2023-01-16T15:14:19;4.70;99.90
12578;DHT22;6354;51.026;8.968;2023-01-16T15:17:09;5.00;99.90
12578;DHT22;6354;51.026;8.968;2023-01-16T15:20:13;4.80;99.90
12578;DHT22;6354;51.026;8.968;2023-01-16T15:23:02;4.70;99.90
12578;DHT22;6354;51.026;8.968;2023-01-16T15:25:43;4.80;99.90
12578;DHT22;6354;51.026;8.968;2023-01-16T15:28:18;4.80;99.90
12578;DHT22;6354;51.026;8.968;2023-01-16T15:30:49;4.80;99.90
12578;DHT22;6354;51.026;8.968;2023-01-16T15:33:23;4.70;99.90
12578;DHT22;6354;51.026;8.968;2023-01-16T15:36:22;4.80;99.90
12578;DHT22;6354;51.026;8.968;2023-01-16T15:38:53;4.70;99.90
12578;DHT22;6354;51.026;8.968;2023-01-16T15:41:26;4.70;99.90
12578;DHT22;6354;51.026;8.968;2023-01-16T15:44:15;4.70;99.90
12578;DHT22;6354;51.026;8.968;2023-01-16T15:47:20;4.70;99.90
12578;DHT22;6354;51.026;8.968;2023-01-16T15:49:58;4.60;99.90
12578;DHT22;6354;51.026;8.968;2023-01-16T15:52:30;4.70;99.90
12578;DHT22;6354;51.026;8.968;2023-01-16T15:54:59;4.60;99.90
12578;DHT22;6354;51.026;8.968;2023-01-16T15:57:27;4.60;99.90
12578;DHT22;6354;51.026;8.968;2023-01-16T15:59:56;4.60;99.90
12578;DHT22;6354;51.026;8.968;2023-01-16T16:02:26;4.60;99.90
12578;DHT22;6354;51.026;8.968;2023-01-16T16:04:56;4.60;99.90
12578;DHT22;6354;51.026;8.968;2023-01-16T16:07:26;4.60;99.90
12578;DHT22;6354;51.026;8.968;2023-01-16T16:09:58;4.60;99.90
12578;DHT22;6354;51.026;8.968;2023-01-16T16:12:27;4.60;99.90
12578;DHT22;6354;51.026;8.968;2023-01-16T16:15:15;4.60;99.90
12578;DHT22;6354;51.026;8.968;2023-01-16T16:18:01;4.60;99.90
12578;DHT22;6354;51.026;8.968;2023-01-16T16:20:32;4.70;99.90
12578;DHT22;6354;51.026;8.968;2023-01-16T16:23:04;4.70;99.90
12578;DHT22;6354;51.026;8.968;2023-01-16T16:25:35;4.70;99.90
12578;DHT22;6354;51.026;8.968;2023-01-16T16:28:05;4.70;99.90
12578;DHT22;6354;51.026;8.968;2023-01-16T16:30:41;4.80;99.90
12578;DHT22;6354;51.026;8.968;2023-01-16T16:33:15;4.70;99.90
12578;DHT22;6354;51.026;8.968;2023-01-16T16:35:48;4.60;99.90
12578;DHT22;6354;51.026;8.968;2023-01-16T16:38:19;4.70;99.90
12578;DHT22;6354;51.026;8.968;2023-01-16T16:44:40;4.70;99.90
12578;DHT22;6354;51.026;8.968;2023-01-16T16:47:22;4.50;99.90
12578;DHT22;6354;51.026;8.968;2023-01-16T16:49:51;4.60;99.90
12578;DHT22;6354;51.026;8.968;2023-01-16T16:55:29;4.60;99.90
12578;DHT22;6354;51.026;8.968;2023-01-16T16:58:00;4.50;99.90
12578;DHT22;6354;51.026;8.968;2023-01-16T17:00:30;4.50;99.90
12578;DHT22;6354;51.026;8.968;2023-01-16T17:03:04;4.60;99.90
12578;DHT22;6354;51.026;8.968;2023-01-16T17:05:33;4.50;99.90
12578;DHT22;6354;51.026;8.968;2023-01-16T17:08:02;4.40;99.90